Weather observations for the past three days for
Visalia, Visalia Municipal Airport
Imperial (Metric)
Date Time (pdt) Wind (mph) Vis. (mi.) Weather Sky Cond. Temperature (ºF) Relative Humidity Wind Chill (°F) Heat Index (°F) Pressure Precipitation (in)
Air Dwpt 6 hour altimeter (in) sea level (mb) 1 hr 3 hr 6 hr
Max. Min.
10 09:56 SE 3 10.00 Fair CLR 73.9 60.1 62% 29.94 1013.5
10 08:56 S 6 10.00 Fair CLR 71.1 60.1 68% 29.93 1013.4
10 07:56 SE 3 10.00 Fair CLR 66 57.9 75% 29.93 1013.4
10 06:56 Calm 10.00 Fair CLR 62.1 57.9 86% 29.92 1012.8
10 05:56 Calm 10.00 Fair CLR 61 55.9 84% 29.9 1012.2
10 04:56 Calm 10.00 Fair CLR 62.1 57 73.9 62.1 84% 29.89 1012.1
10 03:56 NW 8 10.00 Fair CLR 64 57 78% 29.89 1011.8
10 02:56 NW 5 10.00 Fair CLR 64.9 57 76% 29.88 1011.8
10 01:56 NW 5 10.00 Fair CLR 68 57 68% 29.88 1011.8
10 00:56 NW 6 10.00 Fair CLR 70 57 64% 29.88 1011.8
09 23:56 Calm 10.00 Fair CLR 69.1 57 66% 29.89 1011.8
09 22:56 N 3 10.00 Fair CLR 73.9 57.9 91 73.9 57% 29.88 1011.7
09 21:56 NW 5 10.00 Fair CLR 77 55.9 48% 79 29.88 1011.5
09 20:56 Calm 10.00 Fair CLR 78.1 55 45% 79 29.86 1011.0
09 19:56 W 6 10.00 Fair CLR 82.9 53.1 36% 82 29.84 1010.3
09 18:56 NW 10 10.00 Fair CLR 88 46.9 24% 85 29.83 1010.0
09 17:56 NW 10 10.00 Fair CLR 90 48.9 24% 87 29.83 1010.0
09 16:56 N 7 10.00 Fair CLR 90 50 91 75.9 25% 87 29.84 1010.3
09 15:56 NW 10 10.00 Fair CLR 90 46.9 23% 87 29.86 1010.8
09 14:56 N 9 10.00 Fair CLR 89.1 48 24% 86 29.88 1011.6
09 13:56 NW 8 10.00 Fair CLR 84.9 54 35% 83 29.91 1012.5
09 12:56 Vrbl 6 10.00 Fair CLR 84 57 40% 83 29.92 1013.1
09 11:56 N 8 10.00 Fair CLR 80.1 57.9 47% 81 29.95 1013.9
09 10:56 Vrbl 7 10.00 Fair CLR 77 57.9 77 55 52% 79 29.96 1014.4
09 09:56 Vrbl 3 10.00 Fair CLR 71.1 57 61% 29.97 1014.8
09 08:56 SE 5 10.00 Fair CLR 66 55.9 70% 29.97 1014.9
09 07:56 SE 3 10.00 Fair CLR 61 55.9 84% 29.98 1014.9
09 06:56 SE 3 10.00 Fair CLR 57 54 90% 29.97 1014.7
09 05:56 S 3 10.00 Fair CLR 55 53.1 93% 29.95 1014.0
09 04:56 Calm 10.00 Fair CLR 55.9 53.1 68 55.9 90% 29.94 1013.7
09 03:56 NW 6 10.00 Fair CLR 60.1 55 84% 29.94 1013.8
09 02:56 NW 6 10.00 Fair CLR 60.1 55 84% 29.94 1013.6
09 01:56 NW 8 10.00 Fair CLR 63 55.9 78% 29.94 1013.5
09 00:56 NW 8 10.00 Fair CLR 64.9 55 70% 29.94 1013.7
08 23:56 NW 7 10.00 Fair CLR 66 54 65% 29.94 1013.6
08 22:56 NW 6 10.00 Fair CLR 68 54 91 68 61% 29.93 1013.4
08 21:56 NW 6 10.00 Fair CLR 71.1 53.1 53% 29.93 1013.3
08 20:56 NW 7 10.00 Fair CLR 75 52 45% 78 29.91 1012.7
08 19:56 NW 10 10.00 Fair CLR 81 48 32% 80 29.89 1012.1
08 18:56 NW 12 10.00 Fair CLR 86 48 27% 83 29.88 1011.7
08 17:56 NW 13 10.00 Fair CLR 90 48 24% 87 29.89 1011.8
08 16:56 NW 9 10.00 Fair CLR 90 46.9 91 77 23% 87 29.9 1012.4
08 15:56 NW 12 10.00 Fair CLR 90 48 24% 87 29.92 1013.0
08 14:56 W 10 10.00 Fair CLR 90 54 29% 88 29.94 1013.7
08 13:56 W 13 10.00 Fair CLR 87.1 57.9 37% 86 29.96 1014.4
08 12:56 NW 9 10.00 Fair CLR 84.9 62.1 46% 85 29.98 1015.2
08 11:56 Vrbl 3 10.00 Fair CLR 80.1 62.1 54% 81 30.01 1016.0
08 10:56 W 7 10.00 Fair CLR 77 62.1 77 59 60% 79 30.02 1016.5
08 09:56 Vrbl 3 10.00 Fair CLR 73 60.1 64% 30.03 1016.7
08 08:56 W 3 10.00 Fair CLR 68 59 73% 30.04 1016.9
08 07:56 Calm 10.00 Fair CLR 64 57.9 81% 30.03 1016.8
08 06:56 W 3 10.00 Fair CLR 61 57 87% 30.02 1016.3
08 05:56 NW 3 10.00 Fair CLR 61 57 87% 30 1015.8
08 04:56 NW 7 10.00 Fair CLR 62.1 57 73.9 62.1 84% 29.99 1015.5
08 03:56 NW 7 10.00 Fair CLR 63 57.9 84% 29.99 1015.2
08 02:56 W 5 10.00 Fair CLR 64 59 84% 29.98 1015.1
08 01:56 Calm 10.00 Fair CLR 66 60.1 81% 29.98 1015.1
08 00:56 W 6 10.00 Fair CLR 66.9 61 81% 29.98 1015.2
07 23:56 Calm 10.00 Fair CLR 69.1 61 76% 29.98 1015.0
07 22:56 NW 7 10.00 Fair CLR 73.9 61 88 73.9 64% 29.97 1014.7
07 21:56 NW 8 10.00 Fair CLR 75 61 62% 77 29.97 1014.6
07 20:56 NW 7 10.00 Fair CLR 78.1 61 56% 80 29.95 1014.1
07 19:56 NW 7 10.00 Fair CLR 81 60.1 49% 82 29.94 1013.6
07 18:56 W 10 10.00 Fair CLR 84.9 57 39% 84 29.93 1013.2
07 17:56 NW 9 10.00 Fair CLR 87.1 57.9 37% 86 29.93 1013.3
07 16:56 NW 12 10.00 Fair CLR 88 57 89.1 77 35% 87 29.94 1013.5
07 15:56 Vrbl 5 10.00 Fair CLR 86 57 37% 85 29.95 1014.1
07 14:56 NW 9 10.00 Fair CLR 86 57 37% 85 29.97 1014.8
07 13:56 NW 6 10.00 Fair CLR 84 55 37% 83 30 1015.9
07 12:56 Vrbl 7 10.00 Fair CLR 82 55.9 41% 82 30.02 1016.6
07 11:56 Vrbl 3 10.00 Fair CLR 79 55.9 45% 80 30.05 1017.3
07 10:56 NW 6 10.00 Fair CLR 78.1 55.9 78.1 55.9 47% 79 30.06 1017.8
Date Time (pdt) Wind (mph) Vis. (mi.) Weather Sky Cond. Air Dwpt Max. Min. Relative Humidity Wind Chill (°F) Heat Index (°F) altimeter (in) sea level (mb) 1 hr 3 hr 6 hr
6 hour
Temperature (ºF) Pressure Precipitation (in)